sensor_id;sensor_type;location;lat;lon;timestamp;P1;durP1;ratioP1;P2;durP2;ratioP2
61200;SDS011;47065;52.898;6.992;2023-04-22T00:00:36;17.23;;;12.82;;
61200;SDS011;47065;52.898;6.992;2023-04-22T00:03:02;15.68;;;12.02;;
61200;SDS011;47065;52.898;6.992;2023-04-22T00:05:28;19.73;;;13.85;;
61200;SDS011;47065;52.898;6.992;2023-04-22T00:07:54;15.23;;;11.90;;
61200;SDS011;47065;52.898;6.992;2023-04-22T00:10:20;17.08;;;12.77;;
61200;SDS011;47065;52.898;6.992;2023-04-22T00:12:45;14.77;;;11.27;;
61200;SDS011;47065;52.898;6.992;2023-04-22T00:15:11;14.07;;;10.52;;
61200;SDS011;47065;52.898;6.992;2023-04-22T00:17:37;16.58;;;12.35;;
61200;SDS011;47065;52.898;6.992;2023-04-22T00:20:02;17.95;;;12.05;;
61200;SDS011;47065;52.898;6.992;2023-04-22T00:22:28;14.07;;;11.65;;
61200;SDS011;47065;52.898;6.992;2023-04-22T00:24:54;14.50;;;11.45;;
61200;SDS011;47065;52.898;6.992;2023-04-22T00:27:19;12.68;;;10.48;;
61200;SDS011;47065;52.898;6.992;2023-04-22T00:29:45;16.10;;;12.75;;
61200;SDS011;47065;52.898;6.992;2023-04-22T00:32:11;14.35;;;9.70;;
61200;SDS011;47065;52.898;6.992;2023-04-22T00:34:36;13.70;;;11.77;;
61200;SDS011;47065;52.898;6.992;2023-04-22T00:37:02;13.15;;;11.75;;
61200;SDS011;47065;52.898;6.992;2023-04-22T00:39:27;12.77;;;11.48;;
61200;SDS011;47065;52.898;6.992;2023-04-22T00:41:54;13.65;;;11.68;;
61200;SDS011;47065;52.898;6.992;2023-04-22T00:44:19;19.30;;;14.07;;
61200;SDS011;47065;52.898;6.992;2023-04-22T00:46:46;18.88;;;13.52;;
61200;SDS011;47065;52.898;6.992;2023-04-22T00:49:12;21.58;;;13.70;;
61200;SDS011;47065;52.898;6.992;2023-04-22T00:51:39;14.93;;;13.02;;
61200;SDS011;47065;52.898;6.992;2023-04-22T00:54:05;16.40;;;12.95;;
61200;SDS011;47065;52.898;6.992;2023-04-22T00:56:31;15.88;;;11.48;;
61200;SDS011;47065;52.898;6.992;2023-04-22T00:58:59;14.02;;;11.32;;
61200;SDS011;47065;52.898;6.992;2023-04-22T01:01:26;18.30;;;13.82;;
61200;SDS011;47065;52.898;6.992;2023-04-22T01:03:52;14.38;;;12.48;;
61200;SDS011;47065;52.898;6.992;2023-04-22T01:06:18;18.38;;;13.50;;
61200;SDS011;47065;52.898;6.992;2023-04-22T01:08:46;16.48;;;13.02;;
61200;SDS011;47065;52.898;6.992;2023-04-22T01:11:12;14.45;;;12.65;;
61200;SDS011;47065;52.898;6.992;2023-04-22T01:13:38;15.48;;;11.57;;
61200;SDS011;47065;52.898;6.992;2023-04-22T01:16:04;17.02;;;12.77;;
61200;SDS011;47065;52.898;6.992;2023-04-22T01:18:33;14.10;;;11.82;;
61200;SDS011;47065;52.898;6.992;2023-04-22T01:20:59;15.70;;;12.13;;
61200;SDS011;47065;52.898;6.992;2023-04-22T01:23:26;16.58;;;13.02;;
61200;SDS011;47065;52.898;6.992;2023-04-22T01:25:55;13.98;;;12.15;;
61200;SDS011;47065;52.898;6.992;2023-04-22T01:28:21;13.32;;;11.15;;
61200;SDS011;47065;52.898;6.992;2023-04-22T01:30:48;12.55;;;11.27;;
61200;SDS011;47065;52.898;6.992;2023-04-22T01:33:14;14.13;;;11.80;;
61200;SDS011;47065;52.898;6.992;2023-04-22T01:35:40;16.38;;;11.30;;
61200;SDS011;47065;52.898;6.992;2023-04-22T01:38:06;15.25;;;11.85;;
61200;SDS011;47065;52.898;6.992;2023-04-22T01:40:34;13.18;;;11.00;;
61200;SDS011;47065;52.898;6.992;2023-04-22T01:43:04;15.05;;;11.85;;
61200;SDS011;47065;52.898;6.992;2023-04-22T01:45:29;18.27;;;13.15;;
61200;SDS011;47065;52.898;6.992;2023-04-22T01:47:56;15.63;;;13.32;;
61200;SDS011;47065;52.898;6.992;2023-04-22T01:50:21;20.38;;;15.25;;
61200;SDS011;47065;52.898;6.992;2023-04-22T01:52:48;19.55;;;15.02;;
61200;SDS011;47065;52.898;6.992;2023-04-22T01:55:14;22.13;;;15.90;;
61200;SDS011;47065;52.898;6.992;2023-04-22T01:57:40;20.70;;;14.50;;
61200;SDS011;47065;52.898;6.992;2023-04-22T02:00:06;19.08;;;15.15;;
61200;SDS011;47065;52.898;6.992;2023-04-22T02:02:33;22.92;;;15.70;;
61200;SDS011;47065;52.898;6.992;2023-04-22T02:04:59;17.85;;;15.02;;
61200;SDS011;47065;52.898;6.992;2023-04-22T02:07:24;17.35;;;15.05;;
61200;SDS011;47065;52.898;6.992;2023-04-22T02:09:50;19.98;;;14.57;;
61200;SDS011;47065;52.898;6.992;2023-04-22T02:12:16;16.30;;;13.82;;
61200;SDS011;47065;52.898;6.992;2023-04-22T02:14:42;60.72;;;17.35;;
61200;SDS011;47065;52.898;6.992;2023-04-22T02:17:07;15.07;;;11.82;;
61200;SDS011;47065;52.898;6.992;2023-04-22T02:19:33;18.33;;;14.32;;
61200;SDS011;47065;52.898;6.992;2023-04-22T02:21:58;15.13;;;12.70;;
61200;SDS011;47065;52.898;6.992;2023-04-22T02:24:24;17.33;;;14.40;;
61200;SDS011;47065;52.898;6.992;2023-04-22T02:26:50;22.23;;;17.25;;
61200;SDS011;47065;52.898;6.992;2023-04-22T02:29:16;22.60;;;18.00;;
61200;SDS011;47065;52.898;6.992;2023-04-22T02:31:42;22.52;;;18.70;;
61200;SDS011;47065;52.898;6.992;2023-04-22T02:34:07;24.73;;;19.08;;
61200;SDS011;47065;52.898;6.992;2023-04-22T02:36:33;27.65;;;19.67;;
61200;SDS011;47065;52.898;6.992;2023-04-22T02:39:01;23.20;;;18.77;;
61200;SDS011;47065;52.898;6.992;2023-04-22T02:41:28;21.60;;;17.75;;
61200;SDS011;47065;52.898;6.992;2023-04-22T02:43:54;18.88;;;13.68;;
61200;SDS011;47065;52.898;6.992;2023-04-22T02:46:19;13.15;;;11.48;;
61200;SDS011;47065;52.898;6.992;2023-04-22T02:48:45;23.80;;;18.77;;
61200;SDS011;47065;52.898;6.992;2023-04-22T02:51:11;27.80;;;19.83;;
61200;SDS011;47065;52.898;6.992;2023-04-22T02:53:36;27.17;;;21.33;;
61200;SDS011;47065;52.898;6.992;2023-04-22T02:56:02;27.90;;;22.38;;
61200;SDS011;47065;52.898;6.992;2023-04-22T02:58:28;27.65;;;22.20;;
61200;SDS011;47065;52.898;6.992;2023-04-22T03:00:53;33.35;;;24.70;;
61200;SDS011;47065;52.898;6.992;2023-04-22T03:03:21;35.38;;;26.42;;
61200;SDS011;47065;52.898;6.992;2023-04-22T03:05:46;33.10;;;23.60;;
61200;SDS011;47065;52.898;6.992;2023-04-22T03:08:12;22.63;;;15.93;;
61200;SDS011;47065;52.898;6.992;2023-04-22T03:10:37;26.30;;;18.70;;
61200;SDS011;47065;52.898;6.992;2023-04-22T03:13:03;27.02;;;19.33;;
61200;SDS011;47065;52.898;6.992;2023-04-22T03:15:29;24.63;;;17.77;;
61200;SDS011;47065;52.898;6.992;2023-04-22T03:17:54;27.77;;;19.38;;
61200;SDS011;47065;52.898;6.992;2023-04-22T03:20:20;23.27;;;19.42;;
61200;SDS011;47065;52.898;6.992;2023-04-22T03:22:46;24.10;;;19.58;;
61200;SDS011;47065;52.898;6.992;2023-04-22T03:25:12;26.42;;;20.30;;
61200;SDS011;47065;52.898;6.992;2023-04-22T03:27:37;24.38;;;19.75;;
61200;SDS011;47065;52.898;6.992;2023-04-22T03:30:03;25.67;;;19.15;;
61200;SDS011;47065;52.898;6.992;2023-04-22T03:32:30;23.15;;;18.55;;
61200;SDS011;47065;52.898;6.992;2023-04-22T03:34:55;23.70;;;20.08;;
61200;SDS011;47065;52.898;6.992;2023-04-22T03:37:21;22.90;;;19.10;;
61200;SDS011;47065;52.898;6.992;2023-04-22T03:39:46;25.48;;;20.65;;
61200;SDS011;47065;52.898;6.992;2023-04-22T03:42:12;21.55;;;17.75;;
61200;SDS011;47065;52.898;6.992;2023-04-22T03:44:39;26.92;;;19.92;;
61200;SDS011;47065;52.898;6.992;2023-04-22T03:47:04;21.35;;;16.17;;
61200;SDS011;47065;52.898;6.992;2023-04-22T03:49:30;16.45;;;14.65;;
61200;SDS011;47065;52.898;6.992;2023-04-22T03:51:55;19.63;;;15.63;;
61200;SDS011;47065;52.898;6.992;2023-04-22T03:54:21;17.77;;;14.75;;
61200;SDS011;47065;52.898;6.992;2023-04-22T03:56:48;18.42;;;15.07;;
61200;SDS011;47065;52.898;6.992;2023-04-22T03:59:14;18.83;;;14.88;;
61200;SDS011;47065;52.898;6.992;2023-04-22T04:01:39;18.20;;;15.00;;
61200;SDS011;47065;52.898;6.992;2023-04-22T04:04:05;18.40;;;14.20;;
61200;SDS011;47065;52.898;6.992;2023-04-22T04:06:31;17.65;;;14.43;;
61200;SDS011;47065;52.898;6.992;2023-04-22T04:08:57;17.30;;;15.27;;
61200;SDS011;47065;52.898;6.992;2023-04-22T04:11:23;21.52;;;16.02;;
61200;SDS011;47065;52.898;6.992;2023-04-22T04:13:48;20.75;;;16.20;;
61200;SDS011;47065;52.898;6.992;2023-04-22T04:16:14;21.83;;;14.25;;
61200;SDS011;47065;52.898;6.992;2023-04-22T04:18:40;19.38;;;14.43;;
61200;SDS011;47065;52.898;6.992;2023-04-22T04:21:06;18.73;;;14.50;;
61200;SDS011;47065;52.898;6.992;2023-04-22T04:23:32;17.35;;;14.13;;
61200;SDS011;47065;52.898;6.992;2023-04-22T04:25:58;21.85;;;15.18;;
61200;SDS011;47065;52.898;6.992;2023-04-22T04:28:26;20.98;;;15.20;;
61200;SDS011;47065;52.898;6.992;2023-04-22T04:30:56;19.13;;;15.30;;
61200;SDS011;47065;52.898;6.992;2023-04-22T04:33:22;20.45;;;14.45;;
61200;SDS011;47065;52.898;6.992;2023-04-22T04:35:47;24.55;;;16.85;;
61200;SDS011;47065;52.898;6.992;2023-04-22T04:38:13;22.92;;;17.67;;
61200;SDS011;47065;52.898;6.992;2023-04-22T04:40:38;21.00;;;16.38;;
61200;SDS011;47065;52.898;6.992;2023-04-22T04:43:04;21.48;;;16.67;;
61200;SDS011;47065;52.898;6.992;2023-04-22T04:45:32;21.45;;;17.00;;
61200;SDS011;47065;52.898;6.992;2023-04-22T04:48:00;22.42;;;17.38;;
61200;SDS011;47065;52.898;6.992;2023-04-22T04:50:26;25.75;;;17.75;;
61200;SDS011;47065;52.898;6.992;2023-04-22T04:52:52;20.42;;;17.60;;
61200;SDS011;47065;52.898;6.992;2023-04-22T04:55:18;21.67;;;17.33;;
61200;SDS011;47065;52.898;6.992;2023-04-22T04:57:44;20.92;;;17.90;;
61200;SDS011;47065;52.898;6.992;2023-04-22T05:00:10;23.63;;;18.98;;
61200;SDS011;47065;52.898;6.992;2023-04-22T05:02:37;35.92;;;21.25;;
61200;SDS011;47065;52.898;6.992;2023-04-22T05:05:03;25.30;;;18.95;;
61200;SDS011;47065;52.898;6.992;2023-04-22T05:07:30;23.45;;;19.23;;
61200;SDS011;47065;52.898;6.992;2023-04-22T05:09:56;21.20;;;17.60;;
61200;SDS011;47065;52.898;6.992;2023-04-22T05:12:22;24.08;;;20.23;;
61200;SDS011;47065;52.898;6.992;2023-04-22T05:14:47;24.67;;;19.52;;
61200;SDS011;47065;52.898;6.992;2023-04-22T05:17:13;22.95;;;19.63;;
61200;SDS011;47065;52.898;6.992;2023-04-22T05:19:39;23.30;;;18.77;;
61200;SDS011;47065;52.898;6.992;2023-04-22T05:22:05;27.55;;;20.25;;
61200;SDS011;47065;52.898;6.992;2023-04-22T05:24:31;24.40;;;20.33;;
61200;SDS011;47065;52.898;6.992;2023-04-22T05:26:57;26.08;;;20.55;;
61200;SDS011;47065;52.898;6.992;2023-04-22T05:29:23;22.15;;;19.30;;
61200;SDS011;47065;52.898;6.992;2023-04-22T05:31:49;24.08;;;19.05;;
61200;SDS011;47065;52.898;6.992;2023-04-22T05:34:15;24.35;;;19.70;;
61200;SDS011;47065;52.898;6.992;2023-04-22T05:36:40;26.80;;;20.00;;
61200;SDS011;47065;52.898;6.992;2023-04-22T05:39:06;25.70;;;20.33;;
61200;SDS011;47065;52.898;6.992;2023-04-22T05:41:32;26.80;;;19.67;;
61200;SDS011;47065;52.898;6.992;2023-04-22T05:43:58;26.85;;;20.45;;
61200;SDS011;47065;52.898;6.992;2023-04-22T05:46:23;24.27;;;21.35;;
61200;SDS011;47065;52.898;6.992;2023-04-22T05:48:49;26.45;;;20.80;;
61200;SDS011;47065;52.898;6.992;2023-04-22T05:51:15;28.80;;;21.17;;
61200;SDS011;47065;52.898;6.992;2023-04-22T05:53:41;30.10;;;20.98;;
61200;SDS011;47065;52.898;6.992;2023-04-22T05:56:06;24.35;;;19.70;;
61200;SDS011;47065;52.898;6.992;2023-04-22T05:58:32;25.17;;;20.05;;
61200;SDS011;47065;52.898;6.992;2023-04-22T06:00:57;27.15;;;20.67;;
61200;SDS011;47065;52.898;6.992;2023-04-22T06:03:23;27.80;;;20.70;;
61200;SDS011;47065;52.898;6.992;2023-04-22T06:05:49;23.73;;;19.15;;
61200;SDS011;47065;52.898;6.992;2023-04-22T06:08:14;24.13;;;19.23;;
61200;SDS011;47065;52.898;6.992;2023-04-22T06:10:40;23.75;;;19.52;;
61200;SDS011;47065;52.898;6.992;2023-04-22T06:13:06;22.73;;;19.13;;
61200;SDS011;47065;52.898;6.992;2023-04-22T06:15:33;21.83;;;19.23;;
61200;SDS011;47065;52.898;6.992;2023-04-22T06:17:59;23.85;;;19.38;;
61200;SDS011;47065;52.898;6.992;2023-04-22T06:20:24;21.17;;;18.88;;
61200;SDS011;47065;52.898;6.992;2023-04-22T06:22:50;21.52;;;18.08;;
61200;SDS011;47065;52.898;6.992;2023-04-22T06:25:15;28.08;;;20.17;;
61200;SDS011;47065;52.898;6.992;2023-04-22T06:27:41;21.55;;;19.20;;
61200;SDS011;47065;52.898;6.992;2023-04-22T06:30:07;21.25;;;17.55;;
61200;SDS011;47065;52.898;6.992;2023-04-22T06:32:34;27.17;;;18.40;;
61200;SDS011;47065;52.898;6.992;2023-04-22T06:35:00;21.67;;;17.52;;
61200;SDS011;47065;52.898;6.992;2023-04-22T06:37:26;22.50;;;18.10;;
61200;SDS011;47065;52.898;6.992;2023-04-22T06:39:51;23.95;;;18.60;;
61200;SDS011;47065;52.898;6.992;2023-04-22T06:42:17;22.65;;;17.38;;
61200;SDS011;47065;52.898;6.992;2023-04-22T06:44:43;20.73;;;17.75;;
61200;SDS011;47065;52.898;6.992;2023-04-22T06:47:08;23.98;;;18.23;;
61200;SDS011;47065;52.898;6.992;2023-04-22T06:49:34;21.33;;;17.35;;
61200;SDS011;47065;52.898;6.992;2023-04-22T06:52:02;23.15;;;17.33;;
61200;SDS011;47065;52.898;6.992;2023-04-22T06:54:28;20.70;;;16.63;;
61200;SDS011;47065;52.898;6.992;2023-04-22T06:56:55;22.83;;;18.15;;
61200;SDS011;47065;52.898;6.992;2023-04-22T06:59:21;19.35;;;17.15;;
61200;SDS011;47065;52.898;6.992;2023-04-22T07:01:47;19.35;;;17.17;;
61200;SDS011;47065;52.898;6.992;2023-04-22T07:04:12;17.77;;;15.82;;
61200;SDS011;47065;52.898;6.992;2023-04-22T07:06:38;19.35;;;16.92;;
61200;SDS011;47065;52.898;6.992;2023-04-22T07:09:04;19.65;;;15.07;;
61200;SDS011;47065;52.898;6.992;2023-04-22T07:11:29;21.40;;;14.32;;
61200;SDS011;47065;52.898;6.992;2023-04-22T07:13:55;16.00;;;14.27;;
61200;SDS011;47065;52.898;6.992;2023-04-22T07:16:21;18.98;;;14.85;;
61200;SDS011;47065;52.898;6.992;2023-04-22T07:18:47;19.58;;;14.30;;
61200;SDS011;47065;52.898;6.992;2023-04-22T07:21:13;16.70;;;13.02;;
61200;SDS011;47065;52.898;6.992;2023-04-22T07:23:38;16.48;;;13.85;;
61200;SDS011;47065;52.898;6.992;2023-04-22T07:26:04;16.35;;;14.65;;
61200;SDS011;47065;52.898;6.992;2023-04-22T07:28:30;17.13;;;14.23;;
61200;SDS011;47065;52.898;6.992;2023-04-22T07:30:55;19.38;;;14.05;;
61200;SDS011;47065;52.898;6.992;2023-04-22T07:33:21;21.10;;;14.88;;
61200;SDS011;47065;52.898;6.992;2023-04-22T07:35:47;16.20;;;14.07;;
61200;SDS011;47065;52.898;6.992;2023-04-22T07:38:13;14.65;;;13.20;;
61200;SDS011;47065;52.898;6.992;2023-04-22T07:40:39;20.77;;;13.88;;
61200;SDS011;47065;52.898;6.992;2023-04-22T07:43:04;16.08;;;14.35;;
61200;SDS011;47065;52.898;6.992;2023-04-22T07:45:30;14.65;;;13.23;;
61200;SDS011;47065;52.898;6.992;2023-04-22T07:47:56;16.38;;;13.23;;
61200;SDS011;47065;52.898;6.992;2023-04-22T07:50:22;18.13;;;13.50;;
61200;SDS011;47065;52.898;6.992;2023-04-22T07:52:48;14.63;;;13.13;;
61200;SDS011;47065;52.898;6.992;2023-04-22T07:55:13;13.63;;;11.73;;
61200;SDS011;47065;52.898;6.992;2023-04-22T07:57:39;18.77;;;13.18;;
61200;SDS011;47065;52.898;6.992;2023-04-22T08:00:05;13.20;;;11.38;;
61200;SDS011;47065;52.898;6.992;2023-04-22T08:02:31;14.57;;;12.27;;
61200;SDS011;47065;52.898;6.992;2023-04-22T08:04:57;13.45;;;11.50;;
61200;SDS011;47065;52.898;6.992;2023-04-22T08:07:23;12.98;;;11.48;;
61200;SDS011;47065;52.898;6.992;2023-04-22T08:09:49;14.27;;;11.90;;
61200;SDS011;47065;52.898;6.992;2023-04-22T08:12:15;14.32;;;10.65;;
61200;SDS011;47065;52.898;6.992;2023-04-22T08:14:40;12.80;;;10.98;;
61200;SDS011;47065;52.898;6.992;2023-04-22T08:17:06;13.27;;;11.25;;
61200;SDS011;47065;52.898;6.992;2023-04-22T08:19:31;14.13;;;10.43;;
61200;SDS011;47065;52.898;6.992;2023-04-22T08:21:57;13.25;;;11.05;;
61200;SDS011;47065;52.898;6.992;2023-04-22T08:24:23;12.23;;;9.80;;
61200;SDS011;47065;52.898;6.992;2023-04-22T08:26:48;11.30;;;9.88;;
61200;SDS011;47065;52.898;6.992;2023-04-22T08:29:14;12.10;;;10.25;;
61200;SDS011;47065;52.898;6.992;2023-04-22T08:31:40;11.93;;;10.00;;
61200;SDS011;47065;52.898;6.992;2023-04-22T08:34:06;12.98;;;9.27;;
61200;SDS011;47065;52.898;6.992;2023-04-22T08:36:32;10.43;;;9.32;;
61200;SDS011;47065;52.898;6.992;2023-04-22T08:38:58;11.65;;;9.60;;
61200;SDS011;47065;52.898;6.992;2023-04-22T08:41:23;12.82;;;9.23;;
61200;SDS011;47065;52.898;6.992;2023-04-22T08:43:51;12.55;;;8.65;;
61200;SDS011;47065;52.898;6.992;2023-04-22T08:46:17;9.98;;;7.45;;
61200;SDS011;47065;52.898;6.992;2023-04-22T08:48:48;8.57;;;7.70;;
61200;SDS011;47065;52.898;6.992;2023-04-22T08:51:15;7.55;;;6.85;;
61200;SDS011;47065;52.898;6.992;2023-04-22T08:53:44;8.80;;;7.47;;
61200;SDS011;47065;52.898;6.992;2023-04-22T08:56:13;10.60;;;7.13;;
61200;SDS011;47065;52.898;6.992;2023-04-22T08:58:40;9.05;;;7.30;;
61200;SDS011;47065;52.898;6.992;2023-04-22T09:01:06;8.65;;;6.30;;
61200;SDS011;47065;52.898;6.992;2023-04-22T09:03:34;6.85;;;6.18;;
61200;SDS011;47065;52.898;6.992;2023-04-22T09:06:04;7.00;;;5.68;;
61200;SDS011;47065;52.898;6.992;2023-04-22T09:08:30;9.93;;;6.40;;
61200;SDS011;47065;52.898;6.992;2023-04-22T09:10:56;8.25;;;5.20;;
61200;SDS011;47065;52.898;6.992;2023-04-22T09:13:22;6.25;;;5.75;;
61200;SDS011;47065;52.898;6.992;2023-04-22T09:15:50;6.60;;;5.53;;
61200;SDS011;47065;52.898;6.992;2023-04-22T09:18:16;6.07;;;5.25;;
61200;SDS011;47065;52.898;6.992;2023-04-22T09:20:45;5.55;;;4.88;;
61200;SDS011;47065;52.898;6.992;2023-04-22T09:23:12;5.82;;;5.32;;
61200;SDS011;47065;52.898;6.992;2023-04-22T09:25:38;6.60;;;5.75;;
61200;SDS011;47065;52.898;6.992;2023-04-22T09:28:05;5.20;;;4.78;;
61200;SDS011;47065;52.898;6.992;2023-04-22T09:30:35;5.25;;;4.75;;
61200;SDS011;47065;52.898;6.992;2023-04-22T09:33:02;7.35;;;6.05;;
61200;SDS011;47065;52.898;6.992;2023-04-22T09:35:30;7.22;;;5.50;;
61200;SDS011;47065;52.898;6.992;2023-04-22T09:37:59;7.32;;;4.80;;
61200;SDS011;47065;52.898;6.992;2023-04-22T09:40:27;6.07;;;5.55;;
61200;SDS011;47065;52.898;6.992;2023-04-22T09:42:55;5.95;;;5.35;;
61200;SDS011;47065;52.898;6.992;2023-04-22T09:45:32;5.75;;;5.15;;
61200;SDS011;47065;52.898;6.992;2023-04-22T09:48:01;8.95;;;5.13;;
61200;SDS011;47065;52.898;6.992;2023-04-22T09:50:27;5.20;;;4.80;;
61200;SDS011;47065;52.898;6.992;2023-04-22T09:52:54;5.35;;;4.95;;
61200;SDS011;47065;52.898;6.992;2023-04-22T09:55:29;6.55;;;5.22;;
61200;SDS011;47065;52.898;6.992;2023-04-22T09:57:56;5.93;;;5.40;;
61200;SDS011;47065;52.898;6.992;2023-04-22T10:00:24;8.38;;;5.53;;
61200;SDS011;47065;52.898;6.992;2023-04-22T10:02:53;5.68;;;5.07;;
61200;SDS011;47065;52.898;6.992;2023-04-22T10:05:19;5.05;;;4.65;;
61200;SDS011;47065;52.898;6.992;2023-04-22T10:07:45;5.82;;;4.82;;
61200;SDS011;47065;52.898;6.992;2023-04-22T10:10:11;8.18;;;5.10;;
61200;SDS011;47065;52.898;6.992;2023-04-22T10:12:38;6.28;;;5.00;;
61200;SDS011;47065;52.898;6.992;2023-04-22T10:15:03;6.05;;;5.30;;
61200;SDS011;47065;52.898;6.992;2023-04-22T10:17:33;5.95;;;5.45;;
61200;SDS011;47065;52.898;6.992;2023-04-22T10:20:02;6.82;;;5.28;;
61200;SDS011;47065;52.898;6.992;2023-04-22T10:22:32;5.80;;;5.30;;
61200;SDS011;47065;52.898;6.992;2023-04-22T10:24:59;6.93;;;5.22;;
61200;SDS011;47065;52.898;6.992;2023-04-22T10:27:25;6.03;;;5.43;;
61200;SDS011;47065;52.898;6.992;2023-04-22T10:29:51;7.60;;;5.68;;
61200;SDS011;47065;52.898;6.992;2023-04-22T10:34:45;5.82;;;5.32;;
61200;SDS011;47065;52.898;6.992;2023-04-22T10:37:12;6.30;;;5.15;;
61200;SDS011;47065;52.898;6.992;2023-04-22T10:39:39;7.05;;;5.88;;
61200;SDS011;47065;52.898;6.992;2023-04-22T10:44:46;7.18;;;5.90;;
61200;SDS011;47065;52.898;6.992;2023-04-22T10:47:24;8.48;;;5.00;;
61200;SDS011;47065;52.898;6.992;2023-04-22T10:50:07;5.47;;;4.95;;
61200;SDS011;47065;52.898;6.992;2023-04-22T10:52:33;6.13;;;5.53;;
61200;SDS011;47065;52.898;6.992;2023-04-22T10:54:59;6.75;;;5.88;;
61200;SDS011;47065;52.898;6.992;2023-04-22T10:57:35;6.47;;;5.40;;
61200;SDS011;47065;52.898;6.992;2023-04-22T11:05:29;5.53;;;5.00;;
61200;SDS011;47065;52.898;6.992;2023-04-22T11:08:00;7.65;;;6.28;;
61200;SDS011;47065;52.898;6.992;2023-04-22T11:10:31;5.57;;;5.05;;
61200;SDS011;47065;52.898;6.992;2023-04-22T11:13:05;6.10;;;5.00;;
61200;SDS011;47065;52.898;6.992;2023-04-22T11:18:21;7.38;;;5.30;;
61200;SDS011;47065;52.898;6.992;2023-04-22T11:20:48;6.20;;;4.78;;
61200;SDS011;47065;52.898;6.992;2023-04-22T11:26:01;5.78;;;4.43;;
61200;SDS011;47065;52.898;6.992;2023-04-22T11:28:29;8.73;;;4.65;;
61200;SDS011;47065;52.898;6.992;2023-04-22T11:31:02;5.10;;;4.60;;
61200;SDS011;47065;52.898;6.992;2023-04-22T11:33:30;4.40;;;4.00;;
61200;SDS011;47065;52.898;6.992;2023-04-22T11:35:57;4.80;;;4.18;;
61200;SDS011;47065;52.898;6.992;2023-04-22T11:38:22;9.70;;;5.20;;
61200;SDS011;47065;52.898;6.992;2023-04-22T11:40:48;6.50;;;4.78;;
61200;SDS011;47065;52.898;6.992;2023-04-22T11:43:14;6.45;;;5.22;;
61200;SDS011;47065;52.898;6.992;2023-04-22T11:45:42;5.93;;;4.65;;
61200;SDS011;47065;52.898;6.992;2023-04-22T11:48:08;7.07;;;5.68;;
61200;SDS011;47065;52.898;6.992;2023-04-22T11:50:36;10.70;;;6.35;;
61200;SDS011;47065;52.898;6.992;2023-04-22T11:55:45;5.93;;;5.32;;
61200;SDS011;47065;52.898;6.992;2023-04-22T11:58:19;7.75;;;5.45;;
61200;SDS011;47065;52.898;6.992;2023-04-22T12:00:49;9.13;;;5.78;;
61200;SDS011;47065;52.898;6.992;2023-04-22T12:03:17;5.53;;;4.97;;
61200;SDS011;47065;52.898;6.992;2023-04-22T12:05:51;6.53;;;5.93;;
61200;SDS011;47065;52.898;6.992;2023-04-22T12:08:34;5.97;;;5.45;;
61200;SDS011;47065;52.898;6.992;2023-04-22T12:11:06;5.43;;;4.93;;
61200;SDS011;47065;52.898;6.992;2023-04-22T12:16:05;6.32;;;5.72;;
61200;SDS011;47065;52.898;6.992;2023-04-22T12:18:37;7.80;;;6.10;;
61200;SDS011;47065;52.898;6.992;2023-04-22T12:21:13;6.65;;;6.05;;
61200;SDS011;47065;52.898;6.992;2023-04-22T12:23:45;6.85;;;6.25;;
61200;SDS011;47065;52.898;6.992;2023-04-22T12:26:17;6.97;;;6.28;;
61200;SDS011;47065;52.898;6.992;2023-04-22T12:28:44;6.50;;;5.97;;
61200;SDS011;47065;52.898;6.992;2023-04-22T12:31:12;6.88;;;6.28;;
61200;SDS011;47065;52.898;6.992;2023-04-22T12:33:39;6.30;;;5.70;;
61200;SDS011;47065;52.898;6.992;2023-04-22T12:36:05;6.80;;;6.13;;
61200;SDS011;47065;52.898;6.992;2023-04-22T12:38:31;10.23;;;5.97;;
61200;SDS011;47065;52.898;6.992;2023-04-22T12:40:57;6.72;;;5.75;;
61200;SDS011;47065;52.898;6.992;2023-04-22T12:43:24;6.55;;;5.00;;
61200;SDS011;47065;52.898;6.992;2023-04-22T12:45:49;6.88;;;6.10;;
61200;SDS011;47065;52.898;6.992;2023-04-22T12:48:15;7.10;;;5.22;;
61200;SDS011;47065;52.898;6.992;2023-04-22T12:50:41;6.32;;;5.05;;
61200;SDS011;47065;52.898;6.992;2023-04-22T12:53:07;5.40;;;4.82;;
61200;SDS011;47065;52.898;6.992;2023-04-22T12:55:33;6.15;;;4.78;;
61200;SDS011;47065;52.898;6.992;2023-04-22T12:58:00;5.82;;;4.82;;
61200;SDS011;47065;52.898;6.992;2023-04-22T13:00:26;11.27;;;5.68;;
61200;SDS011;47065;52.898;6.992;2023-04-22T13:02:51;5.97;;;5.20;;
61200;SDS011;47065;52.898;6.992;2023-04-22T13:05:17;7.25;;;5.40;;
61200;SDS011;47065;52.898;6.992;2023-04-22T13:07:46;5.97;;;5.35;;
61200;SDS011;47065;52.898;6.992;2023-04-22T13:10:13;8.00;;;5.25;;
61200;SDS011;47065;52.898;6.992;2023-04-22T13:12:40;9.32;;;5.68;;
61200;SDS011;47065;52.898;6.992;2023-04-22T13:15:07;7.32;;;5.82;;
61200;SDS011;47065;52.898;6.992;2023-04-22T13:17:33;5.90;;;5.38;;
61200;SDS011;47065;52.898;6.992;2023-04-22T13:20:00;5.95;;;5.13;;
61200;SDS011;47065;52.898;6.992;2023-04-22T13:22:26;6.85;;;5.13;;
61200;SDS011;47065;52.898;6.992;2023-04-22T13:24:52;5.72;;;5.13;;
61200;SDS011;47065;52.898;6.992;2023-04-22T13:27:17;7.05;;;4.85;;
61200;SDS011;47065;52.898;6.992;2023-04-22T13:29:43;6.88;;;5.40;;
61200;SDS011;47065;52.898;6.992;2023-04-22T13:32:10;7.07;;;5.10;;
61200;SDS011;47065;52.898;6.992;2023-04-22T13:34:37;5.20;;;4.75;;
61200;SDS011;47065;52.898;6.992;2023-04-22T13:37:03;6.00;;;5.40;;
61200;SDS011;47065;52.898;6.992;2023-04-22T13:39:29;7.78;;;5.28;;
61200;SDS011;47065;52.898;6.992;2023-04-22T13:41:55;6.05;;;4.95;;
61200;SDS011;47065;52.898;6.992;2023-04-22T13:44:21;7.03;;;5.28;;
61200;SDS011;47065;52.898;6.992;2023-04-22T13:46:46;5.50;;;5.00;;
61200;SDS011;47065;52.898;6.992;2023-04-22T13:49:12;4.95;;;4.47;;
61200;SDS011;47065;52.898;6.992;2023-04-22T13:51:38;9.07;;;5.80;;
61200;SDS011;47065;52.898;6.992;2023-04-22T13:54:04;6.25;;;4.32;;
61200;SDS011;47065;52.898;6.992;2023-04-22T13:56:31;4.70;;;4.30;;
61200;SDS011;47065;52.898;6.992;2023-04-22T13:58:57;4.68;;;3.63;;
61200;SDS011;47065;52.898;6.992;2023-04-22T14:01:23;4.35;;;3.80;;
61200;SDS011;47065;52.898;6.992;2023-04-22T14:03:52;4.45;;;3.78;;
61200;SDS011;47065;52.898;6.992;2023-04-22T14:06:19;3.60;;;3.30;;
61200;SDS011;47065;52.898;6.992;2023-04-22T14:08:45;3.50;;;3.20;;
61200;SDS011;47065;52.898;6.992;2023-04-22T14:11:11;5.25;;;3.10;;
61200;SDS011;47065;52.898;6.992;2023-04-22T14:13:37;9.82;;;3.65;;
61200;SDS011;47065;52.898;6.992;2023-04-22T14:16:03;4.28;;;3.25;;
61200;SDS011;47065;52.898;6.992;2023-04-22T14:18:34;4.32;;;3.00;;
61200;SDS011;47065;52.898;6.992;2023-04-22T14:21:02;4.55;;;2.90;;
61200;SDS011;47065;52.898;6.992;2023-04-22T14:23:30;4.20;;;3.55;;
61200;SDS011;47065;52.898;6.992;2023-04-22T14:25:56;4.10;;;3.70;;
61200;SDS011;47065;52.898;6.992;2023-04-22T14:28:22;4.30;;;4.00;;
61200;SDS011;47065;52.898;6.992;2023-04-22T14:30:47;5.13;;;4.43;;
61200;SDS011;47065;52.898;6.992;2023-04-22T14:33:13;6.90;;;4.13;;
61200;SDS011;47065;52.898;6.992;2023-04-22T14:35:39;4.72;;;4.32;;
61200;SDS011;47065;52.898;6.992;2023-04-22T14:38:06;4.95;;;4.07;;
61200;SDS011;47065;52.898;6.992;2023-04-22T14:40:33;6.55;;;4.28;;
61200;SDS011;47065;52.898;6.992;2023-04-22T14:42:59;6.03;;;4.00;;
61200;SDS011;47065;52.898;6.992;2023-04-22T14:45:28;5.07;;;3.47;;
61200;SDS011;47065;52.898;6.992;2023-04-22T14:47:55;4.10;;;3.80;;